NCAR-RAP Real-Time Weather Data

Output produced by METARs form (08 May 2021  00:19 UTC)
found at http://weather.rap.ucar.edu/surface/
 
KAUW 072354Z AUTO 01008KT 10SM BKN055 09/M05 A3005 RMK AO2 SLP188 T00891050 10111 20083 51004
KAUW 072254Z AUTO 32009G16KT 10SM BKN060 09/M06 A3005 RMK AO2 SLP187 T00941056
KAUW 072154Z AUTO 34007G15KT 10SM OVC060 10/M04 A3005 RMK AO2 SLP187 T01001044
KAUW 072054Z AUTO 33010G20KT 10SM OVC060 11/M03 A3004 RMK AO2 SLP182 T01111033 51003
KAUW 071954Z AUTO 33010G16KT 10SM OVC060 10/M04 A3003 RMK AO2 SLP182 T01001039
KAUW 071854Z AUTO 33013G20KT 10SM SCT055 OVC070 10/M03 A3003 RMK AO2 SLP181 T01001033
KAUW 071754Z AUTO 32012G21KT 10SM BKN049 OVC070 08/M03 A3003 RMK AO2 SLP178 T00831033 10094 20033 51007
KAUW 071654Z AUTO 31010KT 10SM SCT046 OVC060 09/M03 A3003 RMK AO2 SLP176 T00891028
KAUW 071554Z AUTO 31012G23KT 10SM FEW046 OVC060 08/M03 A3001 RMK AO2 PK WND 33026/1513 SLP172 T00831033
KAUW 071454Z AUTO 30013G22KT 10SM BKN035 BKN045 BKN055 08/M02 A3000 RMK AO2 SLP169 T00781017 50001
KAUW 071414Z AUTO 31012G20KT 10SM FEW022 SCT027 BKN034 07/M01 A3001 RMK AO2 T00721006
KAUW 071407Z AUTO 30013G20KT 10SM SCT023 BKN029 BKN036 07/00 A3000 RMK AO2 T00720000
KAUW 071354Z AUTO 30013G20KT 10SM SCT022 SCT026 07/00 A3001 RMK AO2 SLP172 T00670000
KAUW 071330Z AUTO 33008KT 10SM SCT017 06/00 A3000 RMK AO2 T00560000
KAUW 071254Z AUTO 31012G23KT 10SM BKN017 04/00 A3000 RMK AO2 SLP167 T00440000
KAUW 071250Z AUTO 31012G22KT 10SM BKN018 04/00 A3000 RMK AO2
KAUW 071154Z AUTO 31006KT 10SM CLR 03/00 A2998 RMK AO2 SLP163 60007 70010 T00330000 10061 20028 53009
KAUW 071102Z AUTO 30008KT 10SM SCT023 03/00 A2997 RMK AO2 T00280000
KAUW 071054Z AUTO 30008KT 10SM BKN023 03/00 A2997 RMK AO2 SLP158 T00280000
KAUW 070954Z AUTO 29007KT 10SM BKN023 03/01 A2996 RMK AO2 SLP155 T00330006